Time;durP1;ratioP1;P1;durP2;ratioP2;P2;SDS_P1;SDS_P2;PMS_P1;PMS_P2;Temp;Humidity;BMP_temperature;BMP_pressure;BME280_temperature;BME280_humidity;BME280_pressure;Samples;Min_cycle;Max_cycle;Signal;HPM_P1;HPM_P2
2021/11/21 00:00:21;;;;;;;25.63;14.73;;;9.10;94.40;;;;;;4999174;28;20505;-78
2021/11/21 00:02:48;;;;;;;32.20;18.05;;;9.10;94.40;;;;;;4992939;28;20045;-77
2021/11/21 00:05:16;;;;;;;27.63;15.65;;;9.10;94.40;;;;;;5024161;28;20041;-77
2021/11/21 00:07:44;;;;;;;25.05;15.02;;;9.10;94.40;;;;;;5008831;28;20670;-77
2021/11/21 00:10:12;;;;;;;27.33;15.13;;;9.10;94.40;;;;;;5011010;28;20043;-77
2021/11/21 00:12:50;;;;;;;23.40;13.45;;;9.10;94.40;;;;;;5009701;28;20046;-78
2021/11/21 00:15:54;;;;;;;22.90;12.88;;;9.10;94.40;;;;;;4997237;28;20629;-78
2021/11/21 00:18:49;;;;;;;23.85;14.63;;;9.10;94.40;;;;;;5022191;28;20053;-78
2021/11/21 00:21:57;;;;;;;20.48;12.65;;;9.10;94.40;;;;;;5022066;28;20038;-78
2021/11/21 00:24:49;;;;;;;24.08;13.52;;;9.10;94.40;;;;;;5018445;28;20056;-77
2021/11/21 00:27:29;;;;;;;18.65;9.98;;;9.10;94.40;;;;;;5025168;28;20065;-86
2021/11/21 00:29:56;;;;;;;25.02;13.57;;;9.20;94.40;;;;;;5018949;28;20041;-86
2021/11/21 00:32:23;;;;;;;21.42;12.15;;;9.10;94.40;;;;;;5013910;28;20132;-87
2021/11/21 00:34:50;;;;;;;20.23;10.57;;;9.10;94.60;;;;;;5016755;28;20091;-86
2021/11/21 00:37:17;;;;;;;21.10;12.30;;;9.20;94.40;;;;;;5022885;28;20461;-86
2021/11/21 00:39:46;;;;;;;22.85;12.40;;;9.20;94.40;;;;;;5044780;28;20041;-86
2021/11/21 00:42:15;;;;;;;25.35;13.85;;;9.10;94.40;;;;;;5008466;28;20054;-86
2021/11/21 00:44:44;;;;;;;22.10;12.70;;;9.10;94.40;;;;;;5028072;28;20048;-86
2021/11/21 00:47:12;;;;;;;23.80;14.32;;;9.10;94.40;;;;;;5045885;28;20508;-86
2021/11/21 00:49:40;;;;;;;26.30;15.60;;;9.10;94.40;;;;;;5031283;28;20428;-87
2021/11/21 00:52:09;;;;;;;25.02;13.35;;;9.10;94.40;;;;;;5045439;28;20095;-85
2021/11/21 00:54:46;;;;;;;24.23;13.15;;;9.10;94.40;;;;;;5031465;28;20099;-86
2021/11/21 00:57:14;;;;;;;23.08;12.18;;;9.10;94.40;;;;;;5033334;28;20048;-86
2021/11/21 00:59:41;;;;;;;19.92;10.88;;;9.10;94.70;;;;;;5036069;28;20056;-87
2021/11/21 01:02:11;;;;;;;23.05;13.30;;;9.10;94.50;;;;;;5016809;28;20049;-86
2021/11/21 01:04:41;;;;;;;22.75;12.43;;;9.10;94.50;;;;;;5034491;28;20060;-87
2021/11/21 01:07:12;;;;;;;23.60;13.27;;;9.10;94.50;;;;;;5030163;28;20045;-87
2021/11/21 01:09:39;;;;;;;20.35;11.07;;;9.10;94.50;;;;;;5030351;28;20049;-86
2021/11/21 01:12:08;;;;;;;16.90;9.80;;;9.10;94.50;;;;;;5037793;28;20080;-86
2021/11/21 01:14:37;;;;;;;18.00;9.57;;;9.10;94.50;;;;;;5027552;28;20445;-86
2021/11/21 01:17:06;;;;;;;23.25;12.18;;;9.10;94.50;;;;;;5018394;28;20033;-86
2021/11/21 01:19:34;;;;;;;25.15;15.82;;;9.10;94.50;;;;;;4997091;28;20519;-86
2021/11/21 01:22:02;;;;;;;24.83;13.55;;;9.10;94.50;;;;;;5012797;28;20478;-87
2021/11/21 01:24:30;;;;;;;23.85;13.30;;;9.10;94.50;;;;;;5001257;28;20439;-86
2021/11/21 01:26:57;;;;;;;22.67;11.02;;;9.10;94.80;;;;;;5014388;28;20131;-86
2021/11/21 01:29:24;;;;;;;21.95;11.60;;;9.10;94.50;;;;;;5015395;28;20092;-85
2021/11/21 01:31:51;;;;;;;21.58;12.55;;;9.10;94.50;;;;;;4991083;28;20640;-86
2021/11/21 01:34:18;;;;;;;20.95;12.20;;;9.10;94.50;;;;;;4988783;28;20128;-86
2021/11/21 01:36:45;;;;;;;22.45;12.85;;;9.10;94.50;;;;;;5021650;28;20542;-86
2021/11/21 01:39:13;;;;;;;25.20;13.68;;;9.10;94.50;;;;;;5031600;28;20037;-87
2021/11/21 01:41:40;;;;;;;25.83;14.10;;;9.10;94.50;;;;;;4997613;28;20521;-86
2021/11/21 01:44:10;;;;;;;28.98;15.80;;;9.10;94.50;;;;;;4998961;28;20508;-86
2021/11/21 01:46:39;;;;;;;25.60;13.07;;;9.10;94.50;;;;;;5033159;28;20037;-86
2021/11/21 01:49:08;;;;;;;22.83;12.73;;;9.10;94.50;;;;;;5035607;28;20441;-86
2021/11/21 01:51:36;;;;;;;22.05;11.80;;;9.10;94.50;;;;;;5044300;28;20051;-86
2021/11/21 01:54:07;;;;;;;25.10;14.27;;;9.10;94.50;;;;;;5032399;28;20042;-87
2021/11/21 01:56:34;;;;;;;24.45;14.13;;;9.10;94.50;;;;;;5017898;28;20044;-86
2021/11/21 01:59:03;;;;;;;22.55;11.95;;;9.10;94.50;;;;;;5018296;28;20045;-86
2021/11/21 02:01:30;;;;;;;22.13;11.95;;;9.10;94.60;;;;;;5035335;28;20053;-86
2021/11/21 02:03:57;;;;;;;20.02;11.18;;;9.10;94.50;;;;;;5003443;28;20041;-86
2021/11/21 02:06:24;;;;;;;24.83;12.75;;;9.10;94.50;;;;;;5018025;28;20041;-86
2021/11/21 02:08:54;;;;;;;21.80;12.82;;;9.10;94.50;;;;;;5033728;28;20120;-86
2021/11/21 02:11:21;;;;;;;22.10;11.85;;;9.10;94.60;;;;;;5033713;28;20048;-86
2021/11/21 02:13:49;;;;;;;18.23;10.77;;;9.10;94.60;;;;;;4985901;28;20123;-86
2021/11/21 02:16:18;;;;;;;19.95;11.45;;;9.10;94.60;;;;;;5001447;28;20049;-86
2021/11/21 02:18:46;;;;;;;24.48;12.65;;;9.10;94.50;;;;;;5021310;28;20072;-87
2021/11/21 02:21:15;;;;;;;21.60;11.90;;;9.10;94.60;;;;;;4999296;28;20068;-87
2021/11/21 02:23:44;;;;;;;24.88;13.63;;;9.10;94.60;;;;;;5035110;28;20095;-86
2021/11/21 02:26:14;;;;;;;23.98;13.43;;;9.10;94.60;;;;;;5018995;28;20045;-87
2021/11/21 02:28:42;;;;;;;26.00;13.52;;;9.10;94.50;;;;;;5018632;28;20483;-87
2021/11/21 02:31:11;;;;;;;29.58;16.15;;;9.10;94.50;;;;;;5034263;28;20492;-86
2021/11/21 02:33:39;;;;;;;29.85;14.52;;;9.10;94.60;;;;;;5030165;28;20120;-87
2021/11/21 02:36:08;;;;;;;24.75;13.90;;;9.10;94.60;;;;;;5000671;28;20098;-86
2021/11/21 02:38:36;;;;;;;26.70;14.88;;;9.10;94.60;;;;;;5014915;28;20091;-83
2021/11/21 02:41:06;;;;;;;31.17;16.55;;;9.10;94.60;;;;;;5018132;28;20053;-86
2021/11/21 02:43:34;;;;;;;26.75;14.85;;;9.10;94.60;;;;;;5033725;28;20823;-86
2021/11/21 02:46:02;;;;;;;31.13;16.40;;;9.20;94.60;;;;;;5036351;28;20095;-86
2021/11/21 02:48:33;;;;;;;29.48;15.52;;;9.20;94.60;;;;;;5017983;28;20091;-86
2021/11/21 02:51:03;;;;;;;34.17;17.65;;;9.10;94.60;;;;;;5034362;28;20044;-86
2021/11/21 02:53:33;;;;;;;33.65;17.95;;;9.10;94.60;;;;;;5033789;28;20136;-87
2021/11/21 02:56:03;;;;;;;33.63;16.73;;;9.10;94.60;;;;;;5032334;28;20547;-86
2021/11/21 02:58:32;;;;;;;30.00;15.43;;;9.10;94.60;;;;;;5033044;28;20359;-86
2021/11/21 03:01:25;;;;;;;27.10;13.57;;;9.10;94.60;;;;;;5033924;28;20036;-87
2021/11/21 03:03:52;;;;;;;31.17;15.73;;;9.20;94.60;;;;;;5021040;28;20878;-86
2021/11/21 03:06:20;;;;;;;31.63;16.02;;;9.10;94.60;;;;;;5017378;28;20045;-86
2021/11/21 03:08:48;;;;;;;36.70;17.95;;;9.10;94.60;;;;;;5017799;28;20045;-86
2021/11/21 03:11:28;;;;;;;34.70;17.90;;;9.10;94.60;;;;;;5000261;28;20182;-86
2021/11/21 03:13:57;;;;;;;37.05;19.40;;;9.20;94.70;;;;;;5050446;28;20093;-86
2021/11/21 03:16:26;;;;;;;34.05;17.55;;;9.10;94.60;;;;;;5017107;28;20131;-87
2021/11/21 03:18:54;;;;;;;34.17;15.85;;;9.10;94.70;;;;;;5016610;28;20058;-86
2021/11/21 03:21:21;;;;;;;27.08;14.57;;;9.10;94.70;;;;;;5051753;28;20076;-86
2021/11/21 03:23:48;;;;;;;33.25;17.23;;;9.20;94.70;;;;;;5007334;28;20108;-86
2021/11/21 03:26:16;;;;;;;34.63;18.38;;;9.10;94.60;;;;;;4999031;28;20053;-86
2021/11/21 03:28:43;;;;;;;38.70;18.88;;;9.20;94.70;;;;;;4999357;28;20108;-87
2021/11/21 03:31:12;;;;;;;37.90;18.85;;;9.10;94.60;;;;;;4997985;28;20438;-87
2021/11/21 03:33:40;;;;;;;36.67;19.25;;;9.10;94.70;;;;;;5032051;28;20052;-87
2021/11/21 03:36:07;;;;;;;38.13;17.88;;;9.10;94.70;;;;;;5031265;28;20045;-87
2021/11/21 03:38:34;;;;;;;34.42;19.00;;;9.10;94.70;;;;;;4999260;28;20104;-86
2021/11/21 03:41:02;;;;;;;34.20;17.48;;;9.10;94.70;;;;;;5034170;28;20049;-87
2021/11/21 03:43:29;;;;;;;41.30;19.38;;;9.10;94.70;;;;;;5031595;28;20087;-86
2021/11/21 03:45:56;;;;;;;40.20;19.00;;;9.10;94.70;;;;;;5015882;28;20489;-86
2021/11/21 03:48:23;;;;;;;40.72;20.00;;;9.10;94.70;;;;;;5016172;28;20381;-86
2021/11/21 03:50:50;;;;;;;37.03;18.90;;;9.10;94.80;;;;;;4998695;28;20069;-87
2021/11/21 03:53:18;;;;;;;30.50;16.38;;;9.10;94.80;;;;;;5047183;28;20144;-86
2021/11/21 03:55:46;;;;;;;32.53;17.75;;;9.10;94.80;;;;;;5013004;28;20069;-88
2021/11/21 03:58:14;;;;;;;31.17;15.02;;;9.10;94.80;;;;;;5030596;28;20049;-86
2021/11/21 04:00:46;;;;;;;29.73;14.93;;;9.10;94.80;;;;;;5030228;28;20050;-86
2021/11/21 04:03:15;;;;;;;28.15;13.38;;;9.10;94.80;;;;;;5025462;28;20138;-87
2021/11/21 04:05:43;;;;;;;29.55;14.75;;;9.10;94.80;;;;;;5029820;28;20501;-87
2021/11/21 04:08:10;;;;;;;28.25;14.02;;;9.10;94.80;;;;;;5033612;28;20048;-84
2021/11/21 04:10:39;;;;;;;32.08;15.43;;;9.10;94.80;;;;;;5032942;28;20068;-86
2021/11/21 04:13:06;;;;;;;29.25;14.25;;;9.10;94.80;;;;;;5008488;28;20053;-84
2021/11/21 04:15:33;;;;;;;28.20;14.50;;;9.10;94.80;;;;;;5031484;28;20029;-85
2021/11/21 04:18:00;;;;;;;27.65;13.82;;;9.10;94.80;;;;;;5015840;28;20044;-84
2021/11/21 04:20:29;;;;;;;31.80;17.15;;;9.10;94.80;;;;;;5048161;28;20041;-84
2021/11/21 04:22:56;;;;;;;31.20;15.88;;;9.10;94.90;;;;;;4994105;28;20497;-84
2021/11/21 04:25:23;;;;;;;30.15;14.50;;;9.10;94.90;;;;;;5000962;28;20124;-84
2021/11/21 04:27:50;;;;;;;29.75;14.95;;;9.10;94.90;;;;;;5020957;28;20080;-85
2021/11/21 04:30:17;;;;;;;27.70;14.43;;;9.10;94.90;;;;;;4986810;28;20045;-84
2021/11/21 04:32:46;;;;;;;27.48;13.10;;;9.10;94.90;;;;;;5005593;28;20525;-85
2021/11/21 04:35:17;;;;;;;27.15;12.68;;;9.10;94.90;;;;;;5015998;28;20119;-84
2021/11/21 04:37:44;;;;;;;30.40;15.25;;;9.10;94.90;;;;;;5028890;28;20147;-85
2021/11/21 04:40:13;;;;;;;28.98;13.93;;;9.10;95.00;;;;;;5015156;28;20087;-86
2021/11/21 04:42:41;;;;;;;28.08;13.90;;;9.10;95.00;;;;;;5031915;28;20076;-86
2021/11/21 04:45:09;;;;;;;22.30;10.98;;;9.10;95.00;;;;;;5032925;28;20037;-87
2021/11/21 04:47:37;;;;;;;20.88;10.70;;;9.10;95.10;;;;;;4999995;28;20041;-86
2021/11/21 04:50:05;;;;;;;24.77;11.55;;;9.10;95.10;;;;;;5044632;28;20041;-85
2021/11/21 04:52:32;;;;;;;22.60;11.48;;;9.10;95.10;;;;;;5014282;28;20056;-85
2021/11/21 04:54:59;;;;;;;23.92;12.68;;;9.20;95.10;;;;;;4998239;28;20049;-85
2021/11/21 04:57:27;;;;;;;24.95;11.35;;;9.10;95.10;;;;;;5031215;28;20770;-84
2021/11/21 04:59:53;;;;;;;19.02;9.07;;;9.20;95.10;;;;;;5004180;28;20053;-85
2021/11/21 05:02:20;;;;;;;16.65;8.18;;;9.20;95.10;;;;;;5031266;28;20067;-83
2021/11/21 05:04:48;;;;;;;17.05;7.68;;;9.20;95.10;;;;;;5031413;28;20057;-84
2021/11/21 05:07:15;;;;;;;14.88;7.53;;;9.30;95.10;;;;;;5030600;28;20068;-84
2021/11/21 05:09:42;;;;;;;15.05;7.03;;;9.30;95.10;;;;;;5014401;28;20044;-84
2021/11/21 05:12:09;;;;;;;13.57;7.07;;;9.30;95.10;;;;;;5014471;28;20053;-86
2021/11/21 05:14:36;;;;;;;15.52;7.97;;;9.30;95.10;;;;;;5029608;28;20041;-83
2021/11/21 05:17:04;;;;;;;13.60;6.68;;;9.30;95.00;;;;;;5029941;28;20056;-83
2021/11/21 05:19:31;;;;;;;13.05;5.50;;;9.30;95.00;;;;;;4997117;28;20041;-84
2021/11/21 05:21:58;;;;;;;11.57;5.60;;;9.30;95.10;;;;;;4981615;28;20049;-84
2021/11/21 05:24:26;;;;;;;12.18;5.88;;;9.30;95.10;;;;;;5028903;28;20099;-85
2021/11/21 05:26:53;;;;;;;8.82;4.35;;;9.40;95.10;;;;;;5013947;28;20087;-83
2021/11/21 05:29:21;;;;;;;11.48;5.65;;;9.40;95.10;;;;;;4991714;28;20083;-84
2021/11/21 05:31:48;;;;;;;10.32;5.15;;;9.40;95.10;;;;;;5046743;28;20044;-84
2021/11/21 05:34:15;;;;;;;8.50;3.67;;;9.40;95.10;;;;;;5014546;28;20045;-84
2021/11/21 05:36:44;;;;;;;7.13;3.35;;;9.40;95.10;;;;;;5013906;28;20076;-84
2021/11/21 05:39:13;;;;;;;10.63;3.25;;;9.40;95.10;;;;;;5015459;28;20075;-84
2021/11/21 05:41:40;;;;;;;6.50;3.33;;;9.40;95.10;;;;;;5030552;28;20041;-84
2021/11/21 05:44:07;;;;;;;6.95;3.15;;;9.40;95.30;;;;;;5014738;28;20044;-84
2021/11/21 05:46:34;;;;;;;7.22;3.58;;;9.40;95.10;;;;;;5047669;28;20111;-85
2021/11/21 05:49:02;;;;;;;7.47;3.58;;;9.40;95.10;;;;;;5014556;28;20069;-85
2021/11/21 05:51:29;;;;;;;6.22;3.05;;;9.40;95.10;;;;;;5030666;28;20060;-84
2021/11/21 05:53:56;;;;;;;8.13;3.35;;;9.40;95.10;;;;;;5013379;28;20042;-83
2021/11/21 05:56:24;;;;;;;6.88;2.85;;;9.40;95.10;;;;;;5031180;28;20037;-84
2021/11/21 05:58:51;;;;;;;7.07;3.35;;;9.40;95.10;;;;;;5030494;28;20132;-83
2021/11/21 06:01:18;;;;;;;5.55;2.60;;;9.40;95.10;;;;;;5014636;28;20052;-83
2021/11/21 06:03:45;;;;;;;6.07;2.83;;;9.40;95.10;;;;;;5030745;28;20055;-84
2021/11/21 06:06:12;;;;;;;4.40;2.00;;;9.40;95.10;;;;;;5014044;28;20588;-83
2021/11/21 06:08:39;;;;;;;5.80;2.33;;;9.50;95.10;;;;;;5014385;28;20420;-83
2021/11/21 06:11:06;;;;;;;4.93;2.10;;;9.50;95.10;;;;;;5013626;28;20136;-84
2021/11/21 06:13:33;;;;;;;5.28;2.55;;;9.50;95.10;;;;;;5013942;28;20048;-83
2021/11/21 06:16:00;;;;;;;4.47;2.03;;;9.50;95.00;;;;;;5043139;28;20837;-83
2021/11/21 06:18:27;;;;;;;3.90;1.90;;;9.50;95.00;;;;;;5014486;28;20041;-84
2021/11/21 06:20:57;;;;;;;3.95;1.63;;;9.50;95.10;;;;;;5032026;28;20048;-84
2021/11/21 06:23:24;;;;;;;4.90;1.95;;;9.50;95.10;;;;;;5029703;28;20660;-84
2021/11/21 06:25:51;;;;;;;3.58;1.50;;;9.50;95.10;;;;;;4997566;28;20044;-84
2021/11/21 06:28:19;;;;;;;4.63;1.95;;;9.50;95.10;;;;;;5028546;28;20076;-84
2021/11/21 06:30:46;;;;;;;3.50;1.30;;;9.50;95.10;;;;;;5021086;28;20073;-84
2021/11/21 06:33:13;;;;;;;4.40;1.27;;;9.50;95.10;;;;;;5029882;28;20064;-76
2021/11/21 06:35:41;;;;;;;3.33;1.17;;;9.50;95.10;;;;;;5033283;28;20052;-76
2021/11/21 06:38:09;;;;;;;2.78;1.17;;;9.50;95.10;;;;;;5016174;28;20045;-77
2021/11/21 06:40:36;;;;;;;3.92;1.60;;;9.50;95.20;;;;;;5033401;28;20060;-77
2021/11/21 06:43:03;;;;;;;3.13;1.25;;;9.50;95.10;;;;;;5023119;28;20045;-77
2021/11/21 06:45:30;;;;;;;4.03;1.30;;;9.50;95.10;;;;;;5027638;28;20073;-77
2021/11/21 06:47:57;;;;;;;3.83;1.35;;;9.50;95.10;;;;;;5028135;28;20048;-77
2021/11/21 06:50:24;;;;;;;3.75;1.52;;;9.50;95.10;;;;;;5004474;28;20045;-77
2021/11/21 06:52:51;;;;;;;3.72;1.60;;;9.50;95.10;;;;;;5044413;28;20049;-77
2021/11/21 06:55:18;;;;;;;3.60;1.33;;;9.50;95.10;;;;;;5050081;28;20700;-85
2021/11/21 06:57:45;;;;;;;2.63;1.20;;;9.50;95.10;;;;;;5037766;28;20476;-85
2021/11/21 07:00:15;;;;;;;3.10;1.23;;;9.50;95.10;;;;;;5029216;28;20564;-86
2021/11/21 07:02:42;;;;;;;3.00;1.00;;;9.50;95.10;;;;;;5047690;28;20107;-85
2021/11/21 07:05:10;;;;;;;3.47;1.40;;;9.50;95.10;;;;;;5028120;28;20204;-85
2021/11/21 07:07:38;;;;;;;2.40;0.98;;;9.50;95.10;;;;;;5026492;28;20052;-85
2021/11/21 07:10:07;;;;;;;3.97;1.42;;;9.50;95.10;;;;;;5021556;28;20076;-85
2021/11/21 07:12:34;;;;;;;4.22;1.38;;;9.50;95.10;;;;;;5027631;28;20536;-85
2021/11/21 07:15:12;;;;;;;2.33;0.82;;;9.50;95.10;;;;;;5030383;28;20048;-85
2021/11/21 07:17:40;;;;;;;2.72;0.90;;;9.50;95.10;;;;;;5031411;28;20108;-85
2021/11/21 07:20:11;;;;;;;2.83;1.17;;;9.50;95.10;;;;;;5014691;28;20048;-86
2021/11/21 07:22:40;;;;;;;3.28;1.13;;;9.50;95.10;;;;;;5024724;28;20061;-86
2021/11/21 07:25:07;;;;;;;3.72;1.35;;;9.50;95.10;;;;;;5003589;28;20079;-86
2021/11/21 07:27:34;;;;;;;4.57;1.63;;;9.50;95.10;;;;;;5006276;28;20046;-86
2021/11/21 07:30:01;;;;;;;3.05;1.23;;;9.50;95.10;;;;;;5013329;28;20516;-86
2021/11/21 07:32:28;;;;;;;3.80;1.65;;;9.50;95.10;;;;;;5007391;28;20095;-86
2021/11/21 07:34:55;;;;;;;3.83;1.17;;;9.50;95.10;;;;;;5023361;28;20132;-86
2021/11/21 07:37:22;;;;;;;3.20;1.20;;;9.50;95.10;;;;;;5016458;28;20420;-86
2021/11/21 07:39:49;;;;;;;3.60;1.35;;;9.50;95.10;;;;;;4986418;28;20136;-86
2021/11/21 07:42:16;;;;;;;2.92;1.10;;;9.50;95.10;;;;;;5000870;28;20040;-85
2021/11/21 07:44:43;;;;;;;2.70;1.02;;;9.50;95.10;;;;;;5032161;28;20090;-85
2021/11/21 07:47:10;;;;;;;2.63;0.88;;;9.50;95.10;;;;;;5032373;28;20045;-86
2021/11/21 07:49:37;;;;;;;2.90;0.77;;;9.50;95.10;;;;;;4999285;28;20076;-86
2021/11/21 07:52:05;;;;;;;1.58;0.77;;;9.50;95.10;;;;;;5015425;28;20094;-86
2021/11/21 07:54:32;;;;;;;2.30;1.17;;;9.50;95.10;;;;;;5048716;28;21403;-85
2021/11/21 07:57:00;;;;;;;2.45;0.80;;;9.60;95.10;;;;;;5009057;28;20045;-85
2021/11/21 07:59:34;;;;;;;2.28;0.55;;;9.50;95.30;;;;;;5017322;28;20454;-88
2021/11/21 08:02:01;;;;;;;1.35;0.50;;;9.60;95.10;;;;;;5032565;28;20076;-86
2021/11/21 08:04:29;;;;;;;2.13;0.57;;;9.60;95.10;;;;;;5031818;28;20056;-86
2021/11/21 08:06:56;;;;;;;1.30;0.43;;;9.60;95.00;;;;;;4995504;28;20046;-86
2021/11/21 08:09:23;;;;;;;1.40;0.50;;;9.60;95.00;;;;;;5015338;28;20485;-86
2021/11/21 08:11:50;;;;;;;1.50;0.60;;;9.60;95.00;;;;;;5008862;28;20075;-87
2021/11/21 08:14:18;;;;;;;1.55;0.40;;;9.60;95.00;;;;;;5032715;28;20037;-86
2021/11/21 08:16:45;;;;;;;0.95;0.30;;;9.60;95.00;;;;;;5019245;28;20072;-85
2021/11/21 08:19:12;;;;;;;2.03;0.47;;;9.60;95.00;;;;;;5001486;28;20139;-85
2021/11/21 08:21:39;;;;;;;2.40;0.40;;;9.60;95.00;;;;;;4984054;28;20055;-84
2021/11/21 08:24:07;;;;;;;0.88;0.20;;;9.60;94.90;;;;;;5000493;28;20071;-87
2021/11/21 08:26:35;;;;;;;1.00;0.30;;;9.70;95.00;;;;;;5032084;28;20044;-83
2021/11/21 08:29:04;;;;;;;1.52;0.38;;;9.70;95.00;;;;;;5015152;28;20048;-85
2021/11/21 08:31:52;;;;;;;1.00;0.30;;;9.70;95.00;;;;;;5013306;28;20720;-85
2021/11/21 08:34:20;;;;;;;0.90;0.25;;;9.70;95.00;;;;;;5027149;28;20048;-86
2021/11/21 08:36:50;;;;;;;2.33;0.20;;;9.70;94.90;;;;;;5015749;28;20087;-86
2021/11/21 08:39:21;;;;;;;2.13;0.40;;;9.70;94.90;;;;;;5039472;28;20044;-86
2021/11/21 08:41:53;;;;;;;1.23;0.30;;;9.80;94.90;;;;;;5031801;28;20041;-86
2021/11/21 08:44:22;;;;;;;2.47;0.40;;;9.70;94.90;;;;;;5010317;28;20053;-86
2021/11/21 08:46:54;;;;;;;1.35;0.32;;;9.70;94.90;;;;;;5031406;28;20037;-86
2021/11/21 08:49:22;;;;;;;2.42;0.52;;;9.70;94.80;;;;;;5018857;28;20044;-86
2021/11/21 08:51:49;;;;;;;2.15;0.20;;;9.80;94.80;;;;;;5017668;28;20115;-86
2021/11/21 08:54:22;;;;;;;0.63;0.10;;;9.80;94.80;;;;;;5019657;28;20045;-87
2021/11/21 08:56:49;;;;;;;1.02;0.20;;;9.80;94.80;;;;;;5015769;28;20064;-87
2021/11/21 08:59:19;;;;;;;1.58;0.30;;;9.80;94.80;;;;;;5018008;28;20048;-87
2021/11/21 09:01:46;;;;;;;1.17;0.20;;;9.90;94.80;;;;;;5034478;28;20072;-87
2021/11/21 09:04:13;;;;;;;1.63;0.20;;;9.80;94.70;;;;;;4985974;28;20098;-87
2021/11/21 09:06:43;;;;;;;1.75;0.30;;;9.80;94.70;;;;;;5032066;28;20060;-87
2021/11/21 09:09:11;;;;;;;1.48;0.30;;;9.90;94.70;;;;;;5031897;28;20041;-86
2021/11/21 09:11:39;;;;;;;0.65;0.22;;;9.90;94.70;;;;;;5029115;28;20111;-87
2021/11/21 09:14:27;;;;;;;0.77;0.13;;;9.90;94.70;;;;;;5021779;28;20029;-87
2021/11/21 09:16:54;;;;;;;1.55;0.20;;;9.90;94.70;;;;;;5022889;28;20053;-87
2021/11/21 09:19:22;;;;;;;0.80;0.10;;;10.00;94.70;;;;;;5017115;28;20063;-89
2021/11/21 09:21:49;;;;;;;1.00;0.20;;;10.00;94.60;;;;;;5017325;28;20053;-88
2021/11/21 09:24:16;;;;;;;3.45;0.55;;;10.00;94.50;;;;;;5002138;28;20053;-89
2021/11/21 09:26:43;;;;;;;1.23;0.20;;;9.90;94.50;;;;;;5018845;28;20049;-86
2021/11/21 09:29:11;;;;;;;1.38;0.25;;;9.90;94.50;;;;;;5002021;28;20129;-89
2021/11/21 09:31:38;;;;;;;1.65;0.35;;;9.90;94.50;;;;;;4980365;28;20136;-86
2021/11/21 09:34:05;;;;;;;2.70;0.40;;;9.80;94.50;;;;;;4984664;28;20060;-86
2021/11/21 09:36:33;;;;;;;3.42;0.20;;;9.80;94.50;;;;;;5010091;28;20061;-86
2021/11/21 09:39:00;;;;;;;1.38;0.20;;;9.80;94.50;;;;;;5017336;28;20080;-87
2021/11/21 09:41:27;;;;;;;3.60;0.50;;;9.80;94.40;;;;;;4995709;28;20140;-88
2021/11/21 09:43:57;;;;;;;2.35;0.20;;;9.80;94.40;;;;;;5004194;28;20107;-89
2021/11/21 09:46:24;;;;;;;1.35;0.20;;;9.80;94.40;;;;;;4996872;28;20084;-88
2021/11/21 09:48:52;;;;;;;0.82;0.30;;;9.80;94.40;;;;;;5024582;28;20102;-88
2021/11/21 09:51:21;;;;;;;0.70;0.10;;;9.80;94.30;;;;;;5019250;28;20077;-90
2021/11/21 09:53:48;;;;;;;1.80;0.20;;;9.70;94.30;;;;;;5027828;28;20048;-87
2021/11/21 09:56:16;;;;;;;1.48;0.20;;;9.70;94.30;;;;;;5030265;28;20052;-88
2021/11/21 09:58:45;;;;;;;1.85;0.13;;;9.60;94.40;;;;;;5002782;28;20053;-88
2021/11/21 10:01:38;;;;;;;1.55;0.20;;;9.60;94.40;;;;;;5001601;28;20051;-87
2021/11/21 10:04:07;;;;;;;0.55;0.20;;;9.60;94.30;;;;;;5015590;28;20053;-89
2021/11/21 10:06:45;;;;;;;0.98;0.13;;;9.50;94.40;;;;;;5002459;28;20049;-89
2021/11/21 10:09:18;;;;;;;0.63;0.10;;;9.50;94.40;;;;;;5020514;28;20107;-88
2021/11/21 10:11:57;;;;;;;;;;;9.50;94.50;;;;;;5007378;28;20049;-89
2021/11/21 10:14:25;;;;;;;2.05;0.10;;;9.40;94.40;;;;;;5019457;28;19921;-88
2021/11/21 10:16:52;;;;;;;1.95;0.25;;;9.30;94.50;;;;;;5003810;28;20610;-88
2021/11/21 10:19:19;;;;;;;1.45;0.20;;;9.30;94.40;;;;;;5018415;28;20103;-86
2021/11/21 10:21:52;;;;;;;0.30;0.03;;;9.30;94.40;;;;;;4999038;28;20056;-89
2021/11/21 10:24:32;;;;;;;1.65;0.10;;;9.20;94.40;;;;;;5019587;28;20054;-88
2021/11/21 10:27:11;;;;;;;1.73;0.15;;;9.20;94.50;;;;;;5018038;28;20041;-87
2021/11/21 10:29:43;;;;;;;0.93;0.10;;;9.20;94.50;;;;;;5022415;28;20053;-89
2021/11/21 10:32:32;;;;;;;0.47;0.00;;;9.10;94.50;;;;;;5026983;28;20041;-86
2021/11/21 10:35:04;;;;;;;1.45;0.10;;;9.10;94.50;;;;;;5027249;28;20096;-93
2021/11/21 10:38:11;;;;;;;0.98;0.05;;;9.10;94.50;;;;;;5027989;28;20091;-90
2021/11/21 10:40:39;;;;;;;1.20;0.10;;;9.10;94.40;;;;;;4959486;28;20047;-88
2021/11/21 10:43:22;;;;;;;0.90;0.40;;;9.10;94.40;;;;;;5024713;28;20123;-88
2021/11/21 10:46:58;;;;;;;;;;;;;;;;;;;;;
2021/11/21 11:04:31;;;;;;;0.40;0.10;;;8.90;94.30;;;;;;4940801;29;20082;-94
2021/11/21 11:07:37;;;;;;;1.33;0.20;;;8.90;94.40;;;;;;4932225;29;20047;-96
2021/11/21 11:10:09;;;;;;;1.10;0.30;;;8.90;94.40;;;;;;4931570;29;20106;-92
2021/11/21 11:12:39;;;;;;;0.65;0.10;;;8.90;94.40;;;;;;4931611;29;20048;-92
2021/11/21 11:15:09;;;;;;;0.63;0.00;;;8.90;94.40;;;;;;4940066;29;20043;-91
2021/11/21 11:17:37;;;;;;;0.43;0.10;;;8.90;94.40;;;;;;4930379;28;20051;-88
2021/11/21 11:20:07;;;;;;;0.63;0.20;;;8.90;94.40;;;;;;4964183;28;20066;-89
2021/11/21 11:22:39;;;;;;;2.50;0.30;;;8.90;94.40;;;;;;4958417;28;20062;-92
2021/11/21 11:25:10;;;;;;;1.75;0.55;;;9.00;94.40;;;;;;4991678;28;20048;-90
2021/11/21 11:28:06;;;;;;;3.13;0.38;;;9.00;94.40;;;;;;5023123;28;20049;-90
2021/11/21 11:30:36;;;;;;;1.90;0.60;;;9.10;94.30;;;;;;5007557;28;20137;-89
2021/11/21 11:33:43;;;;;;;2.33;0.30;;;9.10;94.20;;;;;;5018769;28;20080;-88
2021/11/21 11:36:25;;;;;;;3.78;0.82;;;9.20;94.20;;;;;;5010722;28;20045;-88
2021/11/21 11:39:10;;;;;;;1.90;0.30;;;9.20;94.10;;;;;;5033557;28;20120;-88
2021/11/21 11:41:54;;;;;;;1.50;0.30;;;9.30;94.10;;;;;;5021494;28;20041;-85
2021/11/21 11:44:21;;;;;;;4.45;0.45;;;9.30;94.10;;;;;;4989347;28;20066;-83
2021/11/21 11:46:48;;;;;;;2.95;0.22;;;9.30;94.10;;;;;;5001526;28;21673;-86
2021/11/21 11:49:15;;;;;;;2.28;0.22;;;9.40;94.00;;;;;;5000728;28;20477;-80
2021/11/21 11:51:51;;;;;;;1.42;0.22;;;9.50;93.90;;;;;;5014979;28;20033;-86
2021/11/21 12:04:34;;;;;;;2.05;0.20;;;9.90;93.30;;;;;;5426389;23;20058;-92
2021/11/21 12:07:19;;;;;;;2.95;0.30;;;10.00;93.40;;;;;;4833602;29;20106;-93
2021/11/21 12:10:09;;;;;;;2.95;0.20;;;10.10;93.30;;;;;;4840018;29;20052;-89
2021/11/21 12:30:23;;;;;;;1.98;0.35;;;10.30;92.60;;;;;;5217157;23;20545;-79
2021/11/21 12:32:57;;;;;;;2.65;0.20;;;10.30;92.50;;;;;;4833890;29;20514;-81
2021/11/21 12:35:30;;;;;;;1.63;0.20;;;10.30;92.40;;;;;;4826378;29;20050;-85
2021/11/21 12:38:02;;;;;;;0.55;0.20;;;10.40;92.40;;;;;;4831533;29;20048;-82
2021/11/21 12:40:33;;;;;;;2.05;0.17;;;10.40;92.40;;;;;;4826146;29;20061;-84
2021/11/21 12:43:06;;;;;;;0.85;0.20;;;10.50;92.20;;;;;;4822199;29;20063;-83
2021/11/21 12:45:42;;;;;;;1.40;0.10;;;10.50;92.10;;;;;;4832594;29;20053;-83
2021/11/21 12:48:11;;;;;;;2.17;0.20;;;10.60;92.20;;;;;;4812724;29;20402;-81
2021/11/21 12:50:43;;;;;;;0.57;0.05;;;10.70;92.20;;;;;;4820769;29;20052;-84
2021/11/21 12:53:20;;;;;;;0.25;0.10;;;10.70;92.10;;;;;;4804089;29;20057;-82
2021/11/21 12:56:08;;;;;;;1.90;0.20;;;10.80;92.00;;;;;;4800980;29;20053;-82
2021/11/21 12:58:41;;;;;;;3.47;0.20;;;10.80;91.80;;;;;;4830795;29;20045;-80
2021/11/21 13:01:11;;;;;;;1.35;0.10;;;10.80;91.70;;;;;;4823202;29;20056;-79
2021/11/21 13:03:40;;;;;;;3.78;0.45;;;10.70;91.70;;;;;;4827906;29;20085;-80
2021/11/21 13:06:12;;;;;;;3.63;0.45;;;10.70;91.80;;;;;;4828340;29;20042;-79
2021/11/21 13:08:41;;;;;;;2.25;0.28;;;10.60;91.80;;;;;;4832073;29;20049;-79
2021/11/21 13:11:21;;;;;;;1.88;0.10;;;10.60;91.80;;;;;;4824819;29;20092;-79
2021/11/21 13:13:51;;;;;;;0.43;0.08;;;10.60;91.40;;;;;;4829933;29;20061;-79
2021/11/21 13:16:19;;;;;;;0.95;0.20;;;10.50;91.50;;;;;;4825894;29;20050;-78
2021/11/21 13:18:51;;;;;;;1.48;0.15;;;10.50;91.60;;;;;;4825813;29;20123;-82
2021/11/21 13:21:22;;;;;;;0.68;0.10;;;10.50;91.60;;;;;;4835690;29;20053;-78
2021/11/21 13:23:53;;;;;;;4.53;0.30;;;10.50;91.50;;;;;;4825018;29;20056;-78
2021/11/21 13:26:21;;;;;;;1.65;0.13;;;10.50;91.40;;;;;;4836386;29;20507;-80
2021/11/21 13:28:54;;;;;;;1.65;0.15;;;10.50;91.40;;;;;;4824535;29;20050;-80
2021/11/21 13:31:40;;;;;;;2.70;0.68;;;10.50;91.30;;;;;;4806980;29;20058;-79
2021/11/21 13:34:12;;;;;;;2.80;0.35;;;10.50;91.30;;;;;;4822250;29;20057;-80
2021/11/21 13:36:50;;;;;;;0.63;0.22;;;10.40;91.30;;;;;;4792194;29;20055;-79
2021/11/21 13:39:24;;;;;;;0.73;0.10;;;10.40;91.40;;;;;;4808436;29;20085;-78
2021/11/21 13:42:03;;;;;;;1.38;0.10;;;10.30;91.40;;;;;;4833316;29;20054;-81
2021/11/21 13:44:46;;;;;;;2.58;0.22;;;10.20;91.40;;;;;;4839072;29;20050;-79
2021/11/21 13:47:24;;;;;;;3.00;0.60;;;10.10;91.40;;;;;;4800895;29;20166;-83